Time;durP1;ratioP1;P1;durP2;ratioP2;P2;SDS_P1;SDS_P2;PMS_P1;PMS_P2;Temp;Humidity;BMP_temperature;BMP_pressure;BME280_temperature;BME280_humidity;BME280_pressure;Samples;Min_cycle;Max_cycle;Signal;HPM_P1;HPM_P2
2022/01/19 00:00:57;;;;;;;11.85;4.15;;;;;;;-3.00;100.00;96960.94;5040264;28;20044;-77
2022/01/19 00:03:23;;;;;;;8.43;4.15;;;;;;;-3.10;100.00;96949.91;5040985;28;20040;-77
2022/01/19 00:05:52;;;;;;;13.52;4.38;;;;;;;-2.96;100.00;96936.50;5044021;28;20675;-77
2022/01/19 00:08:20;;;;;;;11.75;4.22;;;;;;;-3.16;100.00;96924.72;5037363;28;20041;-79
2022/01/19 00:10:47;;;;;;;14.02;4.28;;;;;;;-3.28;100.00;96918.19;5037213;28;20423;-77
2022/01/19 00:13:14;;;;;;;14.48;4.53;;;;;;;-3.34;100.00;96925.53;5047062;28;20051;-77
2022/01/19 00:15:39;;;;;;;12.25;4.32;;;;;;;-3.21;100.00;96932.09;5039232;28;20118;-78
2022/01/19 00:18:06;;;;;;;11.95;4.15;;;;;;;-3.37;100.00;96933.53;5039619;28;20569;-77
2022/01/19 00:20:33;;;;;;;11.63;4.10;;;;;;;-3.42;100.00;96940.91;5043352;28;20591;-77
2022/01/19 00:23:00;;;;;;;14.13;4.60;;;;;;;-3.50;100.00;96931.31;5047192;28;20111;-77
2022/01/19 00:25:25;;;;;;;16.50;4.68;;;;;;;-3.47;100.00;96927.66;5050752;28;20079;-78
2022/01/19 00:27:51;;;;;;;11.60;4.57;;;;;;;-3.58;100.00;96930.44;5047027;28;20049;-77
2022/01/19 00:30:17;;;;;;;14.25;4.90;;;;;;;-3.64;100.00;96942.13;5048058;28;20037;-76
2022/01/19 00:32:43;;;;;;;16.05;4.22;;;;;;;-3.64;100.00;96936.19;5045778;28;20044;-77
2022/01/19 00:35:10;;;;;;;19.60;5.00;;;;;;;-3.72;100.00;96922.28;5039304;28;20384;-77
2022/01/19 00:37:41;;;;;;;11.18;4.38;;;;;;;-3.49;100.00;96924.44;5051943;28;20045;-77
2022/01/19 00:40:11;;;;;;;14.77;4.30;;;;;;;-3.44;100.00;96922.22;5036945;28;20447;-77
2022/01/19 00:42:36;;;;;;;12.15;4.32;;;;;;;-3.43;100.00;96918.69;5048336;28;20117;-77
2022/01/19 00:45:05;;;;;;;12.73;4.20;;;;;;;-3.54;100.00;96911.19;5051423;28;20486;-76
2022/01/19 00:47:32;;;;;;;13.57;4.65;;;;;;;-3.81;100.00;96899.97;5050434;28;20395;-78
2022/01/19 00:49:57;;;;;;;9.25;4.32;;;;;;;-3.83;100.00;96896.75;5046059;28;20041;-75
2022/01/19 00:52:23;;;;;;;15.88;4.30;;;;;;;-3.59;100.00;96903.06;5049453;28;20091;-75
2022/01/19 00:54:48;;;;;;;14.43;4.05;;;;;;;-3.60;100.00;96896.34;5046584;28;20414;-77
2022/01/19 00:57:14;;;;;;;11.77;4.32;;;;;;;-3.54;100.00;96893.16;5044083;28;20569;-77
2022/01/19 00:59:39;;;;;;;9.52;3.67;;;;;;;-3.58;100.00;96881.53;5049745;28;20044;-77
2022/01/19 01:02:05;;;;;;;13.65;4.18;;;;;;;-3.51;100.00;96885.94;5049727;28;20041;-76
2022/01/19 01:04:34;;;;;;;8.43;3.85;;;;;;;-3.47;100.00;96870.25;5050272;28;20041;-77
2022/01/19 01:07:00;;;;;;;12.40;4.55;;;;;;;-3.40;100.00;96869.50;5047873;28;20087;-76
2022/01/19 01:09:26;;;;;;;11.60;4.03;;;;;;;-3.47;100.00;96855.59;5045991;28;20631;-76
2022/01/19 01:12:01;;;;;;;11.63;3.80;;;;;;;-3.42;100.00;96855.97;5049848;28;20049;-77
2022/01/19 01:18:17;;;;;;;13.20;3.83;;;;;;;-3.57;100.00;96845.38;5042567;28;20040;-77
2022/01/19 01:19:59;;;;;;;8.73;3.92;;;;;;;-3.86;100.00;96845.59;5031556;28;20049;-77
2022/01/19 01:22:25;;;;;;;11.52;4.28;;;;;;;-3.95;100.00;96828.44;5041932;28;20213;-77
2022/01/19 01:24:50;;;;;;;16.45;4.80;;;;;;;-4.01;100.00;96828.09;5045832;28;20037;-77
2022/01/19 01:27:16;;;;;;;13.27;4.00;;;;;;;-3.84;100.00;96807.66;5038220;28;20076;-76
2022/01/19 01:29:42;;;;;;;11.73;4.05;;;;;;;-3.69;100.00;96801.06;5048511;28;20506;-76
2022/01/19 01:32:08;;;;;;;9.85;4.10;;;;;;;-3.68;100.00;96807.00;5043917;28;20041;-77
2022/01/19 01:34:34;;;;;;;10.43;3.90;;;;;;;-3.61;100.00;96807.22;5046421;28;20069;-76
2022/01/19 01:37:00;;;;;;;14.68;4.43;;;;;;;-3.58;100.00;96817.22;5045526;28;20052;-77
2022/01/19 01:39:26;;;;;;;12.05;4.28;;;;;;;-3.83;100.00;96819.56;5043412;28;20045;-76
2022/01/19 01:41:51;;;;;;;10.38;4.13;;;;;;;-3.95;100.00;96816.41;5039787;28;20044;-76
2022/01/19 01:44:17;;;;;;;12.65;4.20;;;;;;;-4.01;100.00;96817.78;5050393;28;20049;-76
2022/01/19 01:49:15;;;;;;;14.60;4.40;;;;;;;-4.10;100.00;96808.38;5041637;28;20041;-76
2022/01/19 01:54:25;;;;;;;14.37;4.47;;;;;;;-4.19;100.00;96798.97;5049869;28;20052;-76
2022/01/19 01:56:53;;;;;;;13.05;3.85;;;;;;;-4.10;100.00;96777.50;5048617;28;20112;-76
2022/01/19 01:59:18;;;;;;;11.38;3.97;;;;;;;-3.83;100.00;96773.28;5035335;28;20041;-76
2022/01/19 02:01:44;;;;;;;9.52;3.58;;;;;;;-3.66;100.00;96759.59;5036296;28;20087;-76
2022/01/19 02:04:10;;;;;;;11.35;3.47;;;;;;;-3.79;100.00;96748.88;5043427;28;20064;-76
2022/01/19 02:06:57;;;;;;;12.07;3.80;;;;;;;-3.75;100.00;96734.75;5045320;28;20044;-76
2022/01/19 02:09:26;;;;;;;7.35;3.13;;;;;;;-3.66;100.00;96735.63;5045684;28;20099;-76
2022/01/19 02:23:01;;;;;;;12.20;3.15;;;;;;;-3.64;100.00;96704.59;5045677;28;20041;-77
2022/01/19 02:25:31;;;;;;;7.50;3.40;;;;;;;-3.44;100.00;96700.88;5044379;28;20506;-76
2022/01/19 02:41:26;;;;;;;8.13;3.30;;;;;;;-3.29;100.00;96679.72;5034386;28;20041;-78
2022/01/19 02:43:52;;;;;;;6.60;2.90;;;;;;;-3.32;100.00;96673.91;5048960;28;20095;-76
2022/01/19 02:49:22;;;;;;;15.10;3.55;;;;;;;-3.27;100.00;96677.81;5024171;28;20049;-76
2022/01/19 02:51:50;;;;;;;7.93;3.63;;;;;;;-3.26;100.00;96671.69;5027314;28;20053;-76
2022/01/19 02:54:19;;;;;;;8.43;3.15;;;;;;;-3.29;100.00;96666.84;5029434;28;20064;-77
2022/01/19 02:56:49;;;;;;;7.10;3.10;;;;;;;-3.32;100.00;96663.63;5041429;28;20565;-79
2022/01/19 02:59:20;;;;;;;11.13;3.45;;;;;;;-3.39;100.00;96662.63;5036560;28;20117;-76
2022/01/19 03:09:46;;;;;;;13.65;3.92;;;;;;;-4.20;100.00;96663.66;5048068;28;20052;-76
2022/01/19 03:12:13;;;;;;;13.18;5.15;;;;;;;-4.23;100.00;96669.09;5040631;28;20048;-76
2022/01/19 03:14:39;;;;;;;16.65;4.40;;;;;;;-4.16;100.00;96667.56;5047761;28;20045;-77
2022/01/19 03:17:06;;;;;;;10.25;3.72;;;;;;;-4.02;100.00;96667.03;5041203;28;20041;-76
2022/01/19 03:19:33;;;;;;;13.07;4.20;;;;;;;-3.77;100.00;96664.63;5046261;28;20119;-77
2022/01/19 03:21:59;;;;;;;15.73;3.60;;;;;;;-3.71;100.00;96663.22;5047927;28;20037;-76
2022/01/19 03:24:25;;;;;;;17.65;4.43;;;;;;;-3.81;100.00;96660.75;5049055;28;20421;-75
2022/01/19 03:26:50;;;;;;;10.18;3.75;;;;;;;-3.90;100.00;96669.38;5043696;28;20427;-76
2022/01/19 03:29:16;;;;;;;18.02;4.03;;;;;;;-3.91;100.00;96668.53;5045811;28;20041;-76
2022/01/19 03:31:42;;;;;;;10.25;3.80;;;;;;;-3.79;100.00;96671.69;5047370;28;20045;-76
2022/01/19 03:34:07;;;;;;;12.13;3.92;;;;;;;-3.84;100.00;96663.63;5042999;28;20037;-76
2022/01/19 03:36:34;;;;;;;12.20;3.85;;;;;;;-3.83;100.00;96670.38;5032533;28;20036;-76
2022/01/19 03:39:00;;;;;;;13.18;3.25;;;;;;;-3.81;100.00;96668.47;5041815;28;20041;-76
2022/01/19 03:41:26;;;;;;;10.77;3.33;;;;;;;-3.84;100.00;96663.63;5037391;28;20037;-76
2022/01/19 03:43:51;;;;;;;13.30;3.75;;;;;;;-3.78;100.00;96662.22;5048316;28;20037;-76
2022/01/19 03:46:18;;;;;;;13.10;3.60;;;;;;;-3.79;100.00;96656.28;5048012;28;22305;-76
2022/01/19 03:48:58;;;;;;;12.18;3.80;;;;;;;-3.85;100.00;96651.72;5044260;28;20473;-76
2022/01/19 03:51:24;;;;;;;16.65;3.80;;;;;;;-3.73;100.00;96655.66;5034810;28;20072;-75
2022/01/19 03:53:50;;;;;;;9.05;3.85;;;;;;;-3.78;100.00;96650.16;5045343;28;20045;-76
2022/01/19 03:56:17;;;;;;;12.40;3.72;;;;;;;-3.90;100.00;96648.78;5045910;28;20132;-76
2022/01/19 03:58:43;;;;;;;15.05;4.07;;;;;;;-4.00;100.00;96646.31;5058768;28;20040;-76
2022/01/19 04:01:09;;;;;;;12.68;4.18;;;;;;;-4.25;100.00;96653.00;5036436;28;20513;-76
2022/01/19 04:08:47;;;;;;;12.65;4.15;;;;;;;-4.06;100.00;96655.41;5042659;28;20087;-76
2022/01/19 04:11:16;;;;;;;11.20;4.20;;;;;;;-3.95;100.00;96658.72;5052510;28;20136;-75
2022/01/19 04:14:21;;;;;;;10.32;3.95;;;;;;;-3.66;100.00;96664.38;5047805;28;20438;-75
2022/01/19 04:16:31;;;;;;;15.55;5.30;;;;;;;-3.39;100.00;96667.78;5036368;28;20417;-76
2022/01/19 04:19:19;;;;;;;19.17;5.45;;;;;;;-3.31;100.00;96670.38;5043387;28;20041;-75
2022/01/19 04:21:45;;;;;;;18.10;6.72;;;;;;;-3.36;100.00;96675.19;5050627;28;20037;-76
2022/01/19 04:24:10;;;;;;;23.48;6.78;;;;;;;-3.36;100.00;96672.59;5050119;28;20487;-76
2022/01/19 04:26:36;;;;;;;27.40;8.07;;;;;;;-3.36;100.00;96667.47;5039859;28;20052;-76
2022/01/19 04:29:02;;;;;;;25.67;7.75;;;;;;;-3.22;100.00;96672.97;5048166;28;20041;-76
2022/01/19 04:31:28;;;;;;;28.52;9.13;;;;;;;-3.23;100.00;96661.06;5036387;28;20048;-75
2022/01/19 04:33:58;;;;;;;26.95;8.55;;;;;;;-3.22;100.00;96658.38;5041869;28;20040;-76
2022/01/19 04:36:32;;;;;;;30.75;9.40;;;;;;;-3.25;100.00;96655.28;5034279;28;20072;-76
2022/01/19 05:05:27;;;;;;;21.25;8.55;;;;;;;-2.79;100.00;96637.72;5049825;28;20644;-76
2022/01/19 05:07:58;;;;;;;25.45;9.18;;;;;;;-2.66;100.00;96637.28;5050524;28;20041;-75
2022/01/19 05:13:27;;;;;;;20.05;8.07;;;;;;;-2.70;100.00;96634.22;5043210;28;20041;-76
2022/01/19 05:15:53;;;;;;;19.45;8.30;;;;;;;-2.80;100.00;96625.84;5050500;28;20045;-75
2022/01/19 05:18:19;;;;;;;22.08;9.00;;;;;;;-2.81;100.00;96626.78;5046363;28;20045;-75
2022/01/19 05:20:47;;;;;;;28.48;8.45;;;;;;;-2.75;100.00;96623.56;5048443;28;20558;-75
2022/01/19 05:23:12;;;;;;;29.75;8.60;;;;;;;-2.70;100.00;96616.19;5050015;28;20050;-75
2022/01/19 05:25:38;;;;;;;25.55;9.30;;;;;;;-2.67;100.00;96621.00;5034410;28;20547;-75
2022/01/19 05:28:04;;;;;;;31.38;9.00;;;;;;;-2.61;100.00;96620.38;5044011;28;20037;-75
2022/01/19 05:30:30;;;;;;;23.33;8.65;;;;;;;-2.56;100.00;96612.16;5049901;28;20044;-75
2022/01/19 05:32:57;;;;;;;28.17;10.00;;;;;;;-2.57;100.00;96614.91;5045194;28;20507;-75
2022/01/19 05:35:24;;;;;;;27.00;9.52;;;;;;;-2.67;100.00;96610.72;5043434;28;20087;-75
2022/01/19 05:37:50;;;;;;;23.38;9.10;;;;;;;-2.59;100.00;96611.69;5048539;28;20064;-76
2022/01/19 05:40:16;;;;;;;25.17;9.02;;;;;;;-2.48;100.00;96601.06;5045715;28;20045;-76
2022/01/19 05:42:42;;;;;;;26.95;9.00;;;;;;;-2.61;100.00;96599.75;5049837;28;20041;-76
2022/01/19 05:45:08;;;;;;;25.17;8.52;;;;;;;-2.46;100.00;96596.53;5047197;28;20037;-75
2022/01/19 05:47:34;;;;;;;21.70;8.60;;;;;;;-2.37;100.00;96611.06;5048085;28;20044;-75
2022/01/19 05:50:00;;;;;;;22.13;8.57;;;;;;;-2.27;100.00;96622.03;5044407;28;20644;-75
2022/01/19 05:52:25;;;;;;;29.38;9.32;;;;;;;-2.20;100.00;96605.91;5046259;28;20045;-76
2022/01/19 05:54:51;;;;;;;28.63;9.52;;;;;;;-2.15;100.00;96609.59;5049999;28;20036;-79
2022/01/19 05:57:17;;;;;;;35.60;9.95;;;;;;;-2.22;100.00;96602.69;5048387;28;20044;-76
2022/01/19 05:59:42;;;;;;;25.60;9.13;;;;;;;-2.29;100.00;96598.16;5045365;28;20048;-77
2022/01/19 06:02:08;;;;;;;26.38;10.13;;;;;;;-2.20;100.00;96595.59;5050519;28;20037;-75
2022/01/19 06:04:34;;;;;;;24.52;7.65;;;;;;;-2.12;100.00;96598.16;5047485;28;20929;-73
2022/01/19 06:07:02;;;;;;;29.48;8.80;;;;;;;-2.18;100.00;96597.03;5038883;28;20052;-73
2022/01/19 06:12:05;;;;;;;31.52;10.25;;;;;;;-2.24;100.00;96599.44;5050724;28;20049;-72
2022/01/19 06:14:32;;;;;;;25.60;9.38;;;;;;;-2.23;100.00;96595.91;5042189;28;20052;-71
2022/01/19 06:16:58;;;;;;;30.80;9.98;;;;;;;-2.23;100.00;96580.44;5050032;28;20041;-72
2022/01/19 06:19:24;;;;;;;28.17;10.30;;;;;;;-2.40;100.00;96580.44;5047191;28;20044;-73
2022/01/19 06:21:50;;;;;;;34.08;10.77;;;;;;;-2.33;100.00;96586.59;5049486;28;20486;-73
2022/01/19 06:24:15;;;;;;;28.35;9.75;;;;;;;-2.24;100.00;96584.81;5049130;28;20545;-73
2022/01/19 06:26:41;;;;;;;30.55;11.30;;;;;;;-2.21;100.00;96570.75;5047329;28;20439;-73
2022/01/19 06:29:07;;;;;;;40.17;10.80;;;;;;;-2.14;100.00;96574.28;5048544;28;20625;-73
2022/01/19 06:31:32;;;;;;;31.67;11.00;;;;;;;-2.09;100.00;96572.03;5049797;28;20487;-77
2022/01/19 06:33:58;;;;;;;31.27;10.88;;;;;;;-2.10;100.00;96571.25;5043706;28;20067;-73
2022/01/19 06:36:24;;;;;;;26.60;10.55;;;;;;;-2.12;100.00;96562.06;5040504;28;20048;-74
2022/01/19 06:38:49;;;;;;;27.92;10.95;;;;;;;-2.15;100.00;96567.56;5045336;28;20041;-75
2022/01/19 06:41:15;;;;;;;33.70;10.77;;;;;;;-2.14;100.00;96569.13;5045312;28;20056;-74
2022/01/19 06:43:40;;;;;;;30.77;11.63;;;;;;;-2.02;100.00;96565.25;5045885;28;20068;-75
2022/01/19 06:46:06;;;;;;;29.23;10.57;;;;;;;-2.12;100.00;96567.22;5041472;28;20041;-74
2022/01/19 06:48:32;;;;;;;31.40;11.05;;;;;;;-2.03;100.00;96561.06;5039197;28;20041;-76
2022/01/19 06:50:58;;;;;;;31.30;11.32;;;;;;;-2.11;100.00;96563.69;5045372;28;20068;-74
2022/01/19 06:53:23;;;;;;;32.20;12.20;;;;;;;-2.23;100.00;96570.13;5046306;28;20648;-76
2022/01/19 06:55:49;;;;;;;32.58;11.93;;;;;;;-1.99;100.00;96557.19;5046041;28;20064;-77
2022/01/19 06:58:15;;;;;;;32.88;10.63;;;;;;;-2.03;100.00;96555.91;5047934;28;20124;-76
2022/01/19 07:00:40;;;;;;;32.78;10.93;;;;;;;-1.82;100.00;96563.13;5046852;28;20040;-75
2022/01/19 07:03:06;;;;;;;31.65;10.95;;;;;;;-1.73;100.00;96561.31;5047484;28;20044;-76
2022/01/19 07:05:31;;;;;;;28.33;10.98;;;;;;;-1.80;100.00;96556.00;5047868;28;20048;-75
2022/01/19 07:07:57;;;;;;;29.23;12.00;;;;;;;-1.76;100.00;96551.34;5048179;28;20033;-75
2022/01/19 07:10:24;;;;;;;30.30;11.15;;;;;;;-1.71;100.00;96548.25;5046630;28;20128;-75
2022/01/19 07:12:50;;;;;;;24.58;10.60;;;;;;;-1.77;100.00;96539.41;5043750;28;20049;-75
2022/01/19 07:15:16;;;;;;;29.73;10.05;;;;;;;-1.83;100.00;96542.66;5042640;28;20124;-75
2022/01/19 07:17:42;;;;;;;32.38;11.60;;;;;;;-1.72;100.00;96538.91;5044423;28;20037;-75
2022/01/19 07:20:08;;;;;;;31.50;11.52;;;;;;;-1.62;100.00;96532.59;5045267;28;20574;-75
2022/01/19 07:22:34;;;;;;;37.30;12.10;;;;;;;-1.87;100.00;96538.78;5042800;28;20046;-75
2022/01/19 07:25:00;;;;;;;30.65;11.98;;;;;;;-1.84;100.00;96533.28;5043889;28;20103;-75
2022/01/19 07:27:26;;;;;;;33.70;12.50;;;;;;;-1.83;100.00;96529.75;5038140;28;20047;-75
2022/01/19 07:29:51;;;;;;;36.58;12.85;;;;;;;-1.71;100.00;96532.78;5047007;28;20037;-74
2022/01/19 07:32:17;;;;;;;33.92;12.95;;;;;;;-1.80;100.00;96530.22;5045355;28;20615;-74
2022/01/19 07:34:43;;;;;;;40.53;12.77;;;;;;;-1.84;100.00;96538.44;5043246;28;20033;-76
2022/01/19 07:37:09;;;;;;;33.20;11.52;;;;;;;-1.75;100.00;96537.47;5044655;28;20398;-76
2022/01/19 07:39:34;;;;;;;41.50;12.75;;;;;;;-1.63;100.00;96530.16;5038989;28;20509;-76
2022/01/19 07:42:01;;;;;;;33.67;13.45;;;;;;;-1.64;100.00;96524.22;5044436;28;20044;-76
2022/01/19 07:44:27;;;;;;;32.78;13.25;;;;;;;-1.75;100.00;96527.94;5046922;28;20099;-76
2022/01/19 07:46:52;;;;;;;37.05;12.50;;;;;;;-1.48;100.00;96513.00;5041579;28;20138;-76
2022/01/19 07:49:18;;;;;;;40.50;12.55;;;;;;;-1.41;100.00;96516.53;5047220;28;20069;-76
2022/01/19 07:51:43;;;;;;;33.90;12.60;;;;;;;-1.62;100.00;96517.09;5036292;28;20564;-76
2022/01/19 07:54:09;;;;;;;36.22;13.05;;;;;;;-1.57;100.00;96514.00;5032421;28;20041;-76
2022/01/19 07:56:35;;;;;;;37.85;13.45;;;;;;;-1.55;100.00;96506.09;5040914;28;20045;-76
2022/01/19 07:59:00;;;;;;;31.67;12.05;;;;;;;-1.35;100.00;96517.63;5046443;28;20054;-76
2022/01/19 08:01:30;;;;;;;35.08;12.45;;;;;;;-1.31;100.00;96524.03;5043439;28;20041;-76
2022/01/19 08:03:57;;;;;;;34.72;12.68;;;;;;;-1.30;100.00;96523.06;5039362;28;20042;-76
2022/01/19 08:06:22;;;;;;;28.27;11.45;;;;;;;-1.29;100.00;96527.28;5044371;28;20055;-74
2022/01/19 08:08:48;;;;;;;35.65;13.77;;;;;;;-1.41;100.00;96523.44;5047204;28;20230;-74
2022/01/19 08:11:14;;;;;;;35.60;12.07;;;;;;;-1.32;100.00;96522.47;5040584;28;20041;-74
2022/01/19 08:13:39;;;;;;;34.80;12.32;;;;;;;-1.43;100.00;96515.88;5045865;28;20414;-76
2022/01/19 08:16:05;;;;;;;36.67;13.60;;;;;;;-1.38;100.00;96514.56;5036555;28;20498;-76
2022/01/19 08:18:30;;;;;;;33.13;11.52;;;;;;;-1.29;100.00;96511.78;5034882;28;20598;-77
2022/01/19 08:20:56;;;;;;;35.53;11.75;;;;;;;-1.22;100.00;96523.03;5029043;28;20119;-77
2022/01/19 08:23:21;;;;;;;31.92;11.77;;;;;;;-1.29;100.00;96511.78;5027597;28;20044;-76
2022/01/19 08:25:47;;;;;;;35.38;12.82;;;;;;;-1.38;100.00;96517.94;5032957;28;20041;-76
2022/01/19 08:28:12;;;;;;;34.60;12.27;;;;;;;-1.48;100.00;96509.59;5028802;28;20052;-77
2022/01/19 08:30:38;;;;;;;35.97;12.77;;;;;;;-1.51;100.00;96502.19;5032961;28;20071;-77
2022/01/19 08:33:04;;;;;;;35.08;12.00;;;;;;;-1.42;100.00;96501.22;5041849;28;20120;-77
2022/01/19 08:35:30;;;;;;;37.63;12.85;;;;;;;-1.30;100.00;96499.84;5028982;28;20137;-78
2022/01/19 08:37:56;;;;;;;33.88;12.88;;;;;;;-1.16;100.00;96495.72;5042621;28;20076;-76
2022/01/19 08:40:26;;;;;;;31.63;12.55;;;;;;;-1.09;100.00;96490.69;5031271;28;20045;-78
2022/01/19 08:42:53;;;;;;;29.90;12.40;;;;;;;-1.16;100.00;96494.94;5044490;28;20033;-77
2022/01/19 08:45:19;;;;;;;30.63;11.40;;;;;;;-1.16;100.00;96484.59;5050081;28;20106;-79
2022/01/19 08:47:46;;;;;;;35.65;13.45;;;;;;;-1.29;100.00;96491.13;5051213;28;20046;-78
2022/01/19 08:50:14;;;;;;;36.55;13.32;;;;;;;-1.29;100.00;96485.97;5036809;28;20041;-78
2022/01/19 08:52:39;;;;;;;27.85;10.70;;;;;;;-1.08;100.00;96487.94;5050098;28;20041;-80
2022/01/19 08:55:06;;;;;;;29.38;12.60;;;;;;;-1.05;100.00;96491.94;5052689;28;20474;-79
2022/01/19 08:57:32;;;;;;;37.42;13.85;;;;;;;-1.31;100.00;96487.09;5053832;28;20037;-77
2022/01/19 08:59:58;;;;;;;33.42;12.68;;;;;;;-1.24;100.00;96488.81;5042487;28;20038;-77
2022/01/19 09:02:23;;;;;;;33.95;12.07;;;;;;;-1.37;100.00;96483.41;5041253;28;20047;-78
2022/01/19 09:04:49;;;;;;;32.75;12.48;;;;;;;-1.24;100.00;96478.47;5048948;28;20606;-78
2022/01/19 09:07:15;;;;;;;31.67;12.82;;;;;;;-0.94;100.00;96483.78;5054521;28;20045;-79
2022/01/19 09:09:40;;;;;;;40.58;14.13;;;;;;;-0.95;100.00;96491.72;5048494;28;20037;-76
2022/01/19 09:12:06;;;;;;;30.85;12.20;;;;;;;-1.20;100.00;96488.50;5047377;28;20498;-78
2022/01/19 09:14:32;;;;;;;33.15;11.60;;;;;;;-0.85;100.00;96489.69;5049295;28;20120;-77
2022/01/19 09:16:58;;;;;;;29.40;11.73;;;;;;;-0.68;100.00;96485.22;5044317;28;20485;-76
2022/01/19 09:19:24;;;;;;;29.90;11.63;;;;;;;-0.64;100.00;96483.09;5051181;28;20045;-78
2022/01/19 09:21:50;;;;;;;24.15;10.52;;;;;;;-0.56;100.00;96481.25;5050355;28;20094;-77
2022/01/19 09:24:17;;;;;;;27.20;10.80;;;;;;;-0.65;99.79;96478.91;5048478;28;20167;-76
2022/01/19 09:26:43;;;;;;;32.97;11.40;;;;;;;-0.63;99.73;96475.16;5044312;28;20119;-78
2022/01/19 09:29:08;;;;;;;33.72;11.75;;;;;;;-0.59;99.62;96473.84;5047610;28;20041;-75
2022/01/19 09:31:35;;;;;;;33.45;11.93;;;;;;;-0.58;99.67;96475.44;5047602;28;20060;-76
2022/01/19 09:34:09;;;;;;;27.00;11.07;;;;;;;-0.54;100.00;96468.94;5039065;28;20038;-78
2022/01/19 09:36:44;;;;;;;36.92;12.40;;;;;;;-0.68;100.00;96461.94;5046260;28;20110;-78
2022/01/19 09:39:11;;;;;;;28.13;11.40;;;;;;;-0.53;100.00;96459.41;5042555;28;20053;-77
2022/01/19 09:41:38;;;;;;;32.60;11.43;;;;;;;-0.23;99.40;96449.91;5042543;28;20124;-76
2022/01/19 09:44:03;;;;;;;29.88;11.32;;;;;;;-0.05;97.99;96451.31;5051668;28;20399;-77
2022/01/19 09:46:29;;;;;;;32.13;11.57;;;;;;;0.02;98.63;96447.03;5044869;28;20044;-77
2022/01/19 09:48:58;;;;;;;31.70;11.68;;;;;;;-0.15;98.21;96440.44;5046084;28;20041;-76
2022/01/19 09:51:24;;;;;;;28.88;12.45;;;;;;;-0.07;100.00;96432.56;5045306;28;20044;-76
2022/01/19 09:53:49;;;;;;;34.08;13.13;;;;;;;0.00;98.68;96428.31;5048149;28;20037;-77
2022/01/19 09:56:20;;;;;;;28.40;11.55;;;;;;;0.95;95.49;96428.31;5043219;28;20499;-76
2022/01/19 09:58:46;;;;;;;30.85;11.75;;;;;;;1.93;90.36;96422.47;5036582;28;20725;-77
2022/01/19 10:01:17;;;;;;;25.48;10.38;;;;;;;3.04;82.86;96418.78;5049848;28;20047;-77
2022/01/19 10:03:44;;;;;;;23.75;9.57;;;;;;;4.10;79.04;96406.66;5047124;28;20120;-77
2022/01/19 10:06:15;;;;;;;24.17;10.25;;;;;;;4.23;78.17;96401.38;5047786;28;20108;-76
2022/01/19 10:08:50;;;;;;;22.17;9.20;;;;;;;4.88;73.61;96403.03;5049836;28;20459;-77
2022/01/19 10:16:59;;;;;;;20.95;9.48;;;;;;;5.64;68.50;96390.78;5048466;28;20042;-76
2022/01/19 10:19:54;;;;;;;20.52;9.77;;;;;;;5.47;69.77;96389.75;5047325;28;20113;-76
2022/01/19 10:22:26;;;;;;;22.60;9.70;;;;;;;4.74;71.74;96391.09;5037563;28;20084;-76
2022/01/19 10:25:00;;;;;;;24.42;9.50;;;;;;;6.13;68.78;96375.22;5041984;28;20400;-76
2022/01/19 10:27:37;;;;;;;20.48;9.05;;;;;;;7.14;63.95;96368.59;5047615;28;20090;-76
2022/01/19 10:30:03;;;;;;;17.67;8.75;;;;;;;6.94;63.07;96364.50;5044359;28;20040;-77
2022/01/19 10:32:38;;;;;;;20.38;9.68;;;;;;;7.88;62.83;96349.81;5051561;28;20410;-77
2022/01/19 10:35:30;;;;;;;19.60;9.05;;;;;;;8.65;58.24;96338.19;5042507;28;20094;-77
2022/01/19 10:38:25;;;;;;;21.40;8.82;;;;;;;8.68;56.92;96332.44;5047441;28;20040;-76
2022/01/19 10:41:01;;;;;;;20.60;8.65;;;;;;;9.13;56.34;96338.69;5030284;28;20059;-77
2022/01/19 10:43:27;;;;;;;20.15;9.20;;;;;;;9.02;57.69;96327.22;5045487;28;20542;-76
2022/01/19 10:45:53;;;;;;;20.73;8.80;;;;;;;8.64;59.70;96326.09;5042594;28;20036;-77
2022/01/19 10:48:33;;;;;;;17.48;8.15;;;;;;;9.95;52.89;96323.22;5032485;28;20038;-76
2022/01/19 10:51:11;;;;;;;16.80;8.35;;;;;;;9.49;53.64;96305.81;5049499;28;20471;-75
2022/01/19 10:53:39;;;;;;;16.73;8.73;;;;;;;7.16;61.24;96311.59;5045802;28;20048;-76
2022/01/19 10:56:05;;;;;;;18.88;8.43;;;;;;;9.00;56.11;96308.28;5044247;28;20033;-76
2022/01/19 10:58:32;;;;;;;20.02;8.95;;;;;;;9.31;56.12;96300.84;5046297;28;20041;-77
2022/01/19 11:00:58;;;;;;;18.65;8.75;;;;;;;10.05;54.18;96294.41;5044577;28;20037;-74
2022/01/19 11:03:26;;;;;;;19.85;9.93;;;;;;;8.94;58.03;96288.25;5044702;28;20524;-78
2022/01/19 11:05:54;;;;;;;26.95;10.98;;;;;;;8.80;56.21;96288.53;5044252;28;20041;-77
2022/01/19 11:08:21;;;;;;;21.88;10.40;;;;;;;8.64;57.77;96289.34;5049448;28;20095;-77
2022/01/19 11:10:49;;;;;;;22.35;10.80;;;;;;;10.22;53.55;96281.97;5036656;28;20325;-76
2022/01/19 11:13:33;;;;;;;20.23;10.13;;;;;;;9.38;56.19;96272.59;5051903;28;20388;-78
2022/01/19 11:16:03;;;;;;;24.38;10.48;;;;;;;8.51;58.02;96279.16;5037628;28;20033;-75
2022/01/19 11:18:30;;;;;;;19.85;9.45;;;;;;;9.07;56.87;96277.41;5048128;28;20041;-76
2022/01/19 11:21:01;;;;;;;23.33;9.68;;;;;;;9.40;59.32;96277.59;5047664;28;20697;-78
2022/01/19 11:24:00;;;;;;;16.92;8.60;;;;;;;12.18;46.63;96267.44;5042937;28;20418;-79
2022/01/19 11:26:31;;;;;;;23.40;8.52;;;;;;;12.02;50.62;96247.34;5041060;28;20056;-78
2022/01/19 11:29:14;;;;;;;17.80;8.30;;;;;;;10.74;50.49;96256.16;5046355;28;20037;-77
2022/01/19 11:31:40;;;;;;;19.48;9.73;;;;;;;8.54;56.24;96257.69;5043126;28;20055;-76
2022/01/19 11:34:06;;;;;;;20.13;8.90;;;;;;;9.21;55.78;96248.19;5044905;28;20041;-76
2022/01/19 11:36:34;;;;;;;33.03;11.13;;;;;;;10.71;54.01;96243.50;5050691;28;20055;-79
2022/01/19 11:39:13;;;;;;;18.27;9.38;;;;;;;10.90;52.90;96244.69;5043536;28;20041;-77
2022/01/19 11:41:51;;;;;;;22.60;10.23;;;;;;;9.04;53.57;96241.13;5043390;28;20049;-76
2022/01/19 11:44:19;;;;;;;24.30;9.35;;;;;;;10.50;50.28;96235.44;5037738;28;20056;-76
2022/01/19 11:46:53;;;;;;;18.83;9.00;;;;;;;12.06;49.13;96228.09;5047176;28;20049;-73
2022/01/19 11:49:50;;;;;;;24.88;8.82;;;;;;;12.53;47.94;96226.31;5042646;28;20041;-75
2022/01/19 11:52:21;;;;;;;15.88;8.07;;;;;;;14.56;42.31;96212.88;5042503;28;20052;-74
2022/01/19 11:54:48;;;;;;;14.38;7.90;;;;;;;13.09;41.68;96216.78;5047862;28;20182;-74
2022/01/19 11:57:14;;;;;;;16.85;8.25;;;;;;;14.47;40.51;96206.59;5048698;28;20040;-76
2022/01/19 11:59:43;;;;;;;15.20;8.18;;;;;;;13.96;40.55;96213.78;5039895;28;20140;-77
2022/01/19 12:02:21;;;;;;;14.43;7.50;;;;;;;14.28;40.09;96209.91;5038996;28;20068;-77
2022/01/19 12:04:50;;;;;;;23.50;7.85;;;;;;;13.12;43.83;96197.72;5047159;28;20033;-78
2022/01/19 12:07:34;;;;;;;17.20;7.80;;;;;;;14.14;42.62;96203.66;5048903;28;20120;-76
2022/01/19 12:10:00;;;;;;;16.48;7.00;;;;;;;14.03;39.85;96184.38;5042854;28;20052;-76
2022/01/19 12:12:30;;;;;;;23.65;7.20;;;;;;;13.68;39.68;96194.91;5047913;28;20045;-75
2022/01/19 12:14:56;;;;;;;12.60;6.38;;;;;;;13.75;40.37;96185.88;5046747;28;20279;-75
2022/01/19 12:17:26;;;;;;;12.48;6.57;;;;;;;13.85;39.57;96175.25;5046538;28;20054;-76
2022/01/19 12:19:53;;;;;;;13.82;6.68;;;;;;;13.57;38.42;96174.84;5048545;28;20041;-73
2022/01/19 12:22:21;;;;;;;11.73;6.20;;;;;;;12.46;39.18;96162.44;5046868;28;20099;-72
2022/01/19 12:24:56;;;;;;;15.13;6.65;;;;;;;13.69;38.16;96156.81;5049697;28;20052;-71
2022/01/19 12:27:31;;;;;;;11.48;6.53;;;;;;;13.58;39.10;96154.50;5041711;28;20041;-72
2022/01/19 12:30:14;;;;;;;12.55;6.85;;;;;;;12.36;39.29;96157.16;5051163;28;20250;-72
2022/01/19 12:32:42;;;;;;;15.25;6.40;;;;;;;12.29;40.71;96152.91;5033070;28;20056;-72
2022/01/19 12:35:13;;;;;;;30.73;7.93;;;;;;;12.51;41.18;96146.56;5041433;28;20045;-76
2022/01/19 12:37:56;;;;;;;11.38;6.03;;;;;;;12.42;40.03;96140.25;5044872;28;20041;-76
2022/01/19 12:40:42;;;;;;;15.30;6.65;;;;;;;12.72;39.66;96133.38;5048739;28;20064;-76
2022/01/19 12:43:30;;;;;;;13.23;6.78;;;;;;;12.08;40.63;96130.22;5050611;28;20790;-76
2022/01/19 12:45:57;;;;;;;11.88;6.57;;;;;;;12.52;41.20;96123.63;5051497;28;20049;-76
2022/01/19 12:48:48;;;;;;;14.40;6.80;;;;;;;12.90;38.80;96116.94;5050841;28;20044;-76